sensor_id;sensor_type;location;lat;lon;timestamp;pressure;altitude;pressure_sealevel;temperature;humidity
41078;BME280;26823;42.662;23.352;2023-02-16T00:00:15;96024.03;;;-1.15;85.27
41078;BME280;26823;42.662;23.352;2023-02-16T00:02:41;96002.66;;;-1.21;85.91
41078;BME280;26823;42.662;23.352;2023-02-16T00:07:50;96004.84;;;-1.25;85.43
41078;BME280;26823;42.662;23.352;2023-02-16T00:10:16;96007.78;;;-1.20;85.82
41078;BME280;26823;42.662;23.352;2023-02-16T00:12:41;95991.97;;;-1.36;85.51
41078;BME280;26823;42.662;23.352;2023-02-16T00:15:25;96007.50;;;-1.25;85.96
41078;BME280;26823;42.662;23.352;2023-02-16T00:17:51;96006.84;;;-1.27;86.03
41078;BME280;26823;42.662;23.352;2023-02-16T00:20:17;96016.94;;;-1.22;86.01
41078;BME280;26823;42.662;23.352;2023-02-16T00:22:43;96020.78;;;-1.25;85.82
41078;BME280;26823;42.662;23.352;2023-02-16T00:25:09;96011.50;;;-1.29;85.58
41078;BME280;26823;42.662;23.352;2023-02-16T00:27:34;96013.19;;;-1.36;85.98
41078;BME280;26823;42.662;23.352;2023-02-16T00:30:17;96017.38;;;-1.42;87.15
41078;BME280;26823;42.662;23.352;2023-02-16T00:32:43;96006.81;;;-1.50;87.30
41078;BME280;26823;42.662;23.352;2023-02-16T00:35:16;96008.41;;;-1.41;87.16
41078;BME280;26823;42.662;23.352;2023-02-16T00:37:42;96006.09;;;-1.44;87.42
41078;BME280;26823;42.662;23.352;2023-02-16T00:40:12;96004.75;;;-1.40;87.03
41078;BME280;26823;42.662;23.352;2023-02-16T00:42:38;96012.72;;;-1.40;86.57
41078;BME280;26823;42.662;23.352;2023-02-16T00:45:05;96007.59;;;-1.41;87.15
41078;BME280;26823;42.662;23.352;2023-02-16T00:47:42;96014.50;;;-1.32;86.67
41078;BME280;26823;42.662;23.352;2023-02-16T00:52:42;96000.13;;;-1.46;86.60
41078;BME280;26823;42.662;23.352;2023-02-16T00:55:20;96019.31;;;-1.36;86.67
41078;BME280;26823;42.662;23.352;2023-02-16T00:57:50;96016.38;;;-1.41;86.40
41078;BME280;26823;42.662;23.352;2023-02-16T01:02:48;96011.22;;;-1.42;86.68
41078;BME280;26823;42.662;23.352;2023-02-16T01:05:18;95995.00;;;-1.48;85.83
41078;BME280;26823;42.662;23.352;2023-02-16T01:07:43;96017.94;;;-1.55;85.81
41078;BME280;26823;42.662;23.352;2023-02-16T01:10:28;95989.03;;;-1.81;86.33
41078;BME280;26823;42.662;23.352;2023-02-16T01:13:14;95997.75;;;-1.72;86.85
41078;BME280;26823;42.662;23.352;2023-02-16T01:15:40;96012.84;;;-1.65;86.51
41078;BME280;26823;42.662;23.352;2023-02-16T01:18:06;96005.88;;;-1.66;86.54
41078;BME280;26823;42.662;23.352;2023-02-16T01:20:32;95998.25;;;-1.69;87.07
41078;BME280;26823;42.662;23.352;2023-02-16T01:23:00;95999.72;;;-1.66;86.68
41078;BME280;26823;42.662;23.352;2023-02-16T01:25:25;95991.81;;;-1.74;86.43
41078;BME280;26823;42.662;23.352;2023-02-16T01:27:51;95970.00;;;-1.85;86.49
41078;BME280;26823;42.662;23.352;2023-02-16T01:30:21;95973.19;;;-1.98;87.02
41078;BME280;26823;42.662;23.352;2023-02-16T01:32:48;95987.16;;;-1.72;87.02
41078;BME280;26823;42.662;23.352;2023-02-16T01:35:21;95963.41;;;-1.97;87.33
41078;BME280;26823;42.662;23.352;2023-02-16T01:37:50;95936.78;;;-2.12;87.27
41078;BME280;26823;42.662;23.352;2023-02-16T01:43:19;95980.94;;;-1.88;87.67
41078;BME280;26823;42.662;23.352;2023-02-16T01:46:07;95978.94;;;-1.86;87.93
41078;BME280;26823;42.662;23.352;2023-02-16T01:48:36;95933.81;;;-2.17;87.37
41078;BME280;26823;42.662;23.352;2023-02-16T01:53:43;95969.69;;;-1.98;87.26
41078;BME280;26823;42.662;23.352;2023-02-16T01:56:32;95969.31;;;-1.87;88.01
41078;BME280;26823;42.662;23.352;2023-02-16T02:02:16;95968.53;;;-1.95;87.64
41078;BME280;26823;42.662;23.352;2023-02-16T02:04:56;95947.72;;;-2.15;87.56
41078;BME280;26823;42.662;23.352;2023-02-16T02:16:06;95958.47;;;-2.08;87.71
41078;BME280;26823;42.662;23.352;2023-02-16T02:18:31;95972.22;;;-2.13;87.97
41078;BME280;26823;42.662;23.352;2023-02-16T02:32:44;95931.03;;;-2.24;86.97
41078;BME280;26823;42.662;23.352;2023-02-16T02:35:40;95965.44;;;-2.07;86.88
41078;BME280;26823;42.662;23.352;2023-02-16T02:43:55;95942.13;;;-2.28;88.19
41078;BME280;26823;42.662;23.352;2023-02-16T02:46:26;95950.88;;;-2.20;88.06
41078;BME280;26823;42.662;23.352;2023-02-16T02:48:53;95923.13;;;-2.40;87.97
41078;BME280;26823;42.662;23.352;2023-02-16T02:51:25;95923.00;;;-2.55;88.43
41078;BME280;26823;42.662;23.352;2023-02-16T02:53:55;95960.88;;;-2.30;88.32
41078;BME280;26823;42.662;23.352;2023-02-16T02:56:56;95953.59;;;-2.28;88.22
41078;BME280;26823;42.662;23.352;2023-02-16T02:59:49;95958.53;;;-2.25;88.33
41078;BME280;26823;42.662;23.352;2023-02-16T03:02:37;95958.53;;;-2.33;88.24
41078;BME280;26823;42.662;23.352;2023-02-16T03:05:07;95963.00;;;-2.25;88.18
41078;BME280;26823;42.662;23.352;2023-02-16T03:07:34;95962.53;;;-2.37;88.05
41078;BME280;26823;42.662;23.352;2023-02-16T03:10:17;95953.59;;;-2.36;88.40
41078;BME280;26823;42.662;23.352;2023-02-16T03:13:04;95966.47;;;-2.25;88.41
41078;BME280;26823;42.662;23.352;2023-02-16T03:15:30;95968.63;;;-2.28;87.73
41078;BME280;26823;42.662;23.352;2023-02-16T03:17:57;95955.56;;;-2.38;87.55
41078;BME280;26823;42.662;23.352;2023-02-16T03:20:43;95967.19;;;-2.39;88.07
41078;BME280;26823;42.662;23.352;2023-02-16T03:23:28;95967.00;;;-2.38;87.93
41078;BME280;26823;42.662;23.352;2023-02-16T03:26:13;95943.69;;;-2.51;88.24
41078;BME280;26823;42.662;23.352;2023-02-16T03:29:00;95943.03;;;-2.53;88.04
41078;BME280;26823;42.662;23.352;2023-02-16T03:31:50;95943.84;;;-2.52;88.36
41078;BME280;26823;42.662;23.352;2023-02-16T03:34:18;95937.41;;;-2.58;88.28
41078;BME280;26823;42.662;23.352;2023-02-16T03:36:46;95952.81;;;-2.53;88.67
41078;BME280;26823;42.662;23.352;2023-02-16T03:39:12;95944.69;;;-2.52;88.76
41078;BME280;26823;42.662;23.352;2023-02-16T03:41:50;95955.91;;;-2.41;87.81
41078;BME280;26823;42.662;23.352;2023-02-16T03:44:16;95947.97;;;-2.50;88.04
41078;BME280;26823;42.662;23.352;2023-02-16T03:46:41;95957.94;;;-2.52;88.32
41078;BME280;26823;42.662;23.352;2023-02-16T03:49:10;95951.97;;;-2.46;88.47
41078;BME280;26823;42.662;23.352;2023-02-16T03:51:36;95960.56;;;-2.43;88.40
41078;BME280;26823;42.662;23.352;2023-02-16T03:54:01;95958.56;;;-2.50;88.06
41078;BME280;26823;42.662;23.352;2023-02-16T03:56:29;95957.94;;;-2.60;88.12
41078;BME280;26823;42.662;23.352;2023-02-16T03:58:54;95958.94;;;-2.69;88.46
41078;BME280;26823;42.662;23.352;2023-02-16T04:01:23;95950.34;;;-2.71;89.12
41078;BME280;26823;42.662;23.352;2023-02-16T04:03:48;95941.25;;;-2.77;89.24
41078;BME280;26823;42.662;23.352;2023-02-16T04:06:14;95929.00;;;-2.95;89.14
41078;BME280;26823;42.662;23.352;2023-02-16T04:08:39;95945.69;;;-2.78;88.87
41078;BME280;26823;42.662;23.352;2023-02-16T04:11:05;95930.00;;;-2.87;88.89
41078;BME280;26823;42.662;23.352;2023-02-16T04:13:50;95945.03;;;-2.71;88.99
41078;BME280;26823;42.662;23.352;2023-02-16T04:16:16;95935.28;;;-2.79;89.02
41078;BME280;26823;42.662;23.352;2023-02-16T04:18:41;95937.63;;;-2.92;88.67
41078;BME280;26823;42.662;23.352;2023-02-16T04:21:06;95913.78;;;-3.01;89.72
41078;BME280;26823;42.662;23.352;2023-02-16T04:23:32;95933.16;;;-2.92;89.45
41078;BME280;26823;42.662;23.352;2023-02-16T04:25:57;95938.44;;;-2.92;89.65
41078;BME280;26823;42.662;23.352;2023-02-16T04:28:22;95932.97;;;-2.82;89.29
41078;BME280;26823;42.662;23.352;2023-02-16T04:30:48;95911.97;;;-3.00;89.63
41078;BME280;26823;42.662;23.352;2023-02-16T04:33:13;95938.78;;;-2.87;89.82
41078;BME280;26823;42.662;23.352;2023-02-16T04:35:39;95936.59;;;-2.75;89.23
41078;BME280;26823;42.662;23.352;2023-02-16T04:38:04;95933.47;;;-2.87;89.98
41078;BME280;26823;42.662;23.352;2023-02-16T04:40:29;95935.13;;;-2.69;89.31
41078;BME280;26823;42.662;23.352;2023-02-16T04:42:55;95932.34;;;-2.92;89.53
41078;BME280;26823;42.662;23.352;2023-02-16T04:45:20;95912.47;;;-3.13;89.92
41078;BME280;26823;42.662;23.352;2023-02-16T04:47:46;95939.28;;;-3.08;90.78
41078;BME280;26823;42.662;23.352;2023-02-16T04:50:11;95942.91;;;-3.17;91.33
41078;BME280;26823;42.662;23.352;2023-02-16T04:52:37;95921.22;;;-3.37;91.99
41078;BME280;26823;42.662;23.352;2023-02-16T04:55:03;95961.78;;;-3.04;91.73
41078;BME280;26823;42.662;23.352;2023-02-16T04:57:30;95948.56;;;-3.04;92.22
41078;BME280;26823;42.662;23.352;2023-02-16T04:59:55;95951.50;;;-2.90;91.26
41078;BME280;26823;42.662;23.352;2023-02-16T05:02:21;95959.47;;;-2.82;90.97
41078;BME280;26823;42.662;23.352;2023-02-16T05:04:46;95960.44;;;-2.91;90.82
41078;BME280;26823;42.662;23.352;2023-02-16T05:07:12;95941.78;;;-3.06;90.44
41078;BME280;26823;42.662;23.352;2023-02-16T05:09:37;95948.69;;;-3.05;91.05
41078;BME280;26823;42.662;23.352;2023-02-16T05:12:03;95951.19;;;-2.96;90.74
41078;BME280;26823;42.662;23.352;2023-02-16T05:14:47;95962.59;;;-2.87;90.09
41078;BME280;26823;42.662;23.352;2023-02-16T05:17:21;95973.34;;;-2.97;89.86
41078;BME280;26823;42.662;23.352;2023-02-16T05:19:50;95951.53;;;-3.15;90.51
41078;BME280;26823;42.662;23.352;2023-02-16T05:22:17;95965.09;;;-3.02;90.86
41078;BME280;26823;42.662;23.352;2023-02-16T05:24:43;95973.22;;;-2.95;90.20
41078;BME280;26823;42.662;23.352;2023-02-16T05:27:17;95967.22;;;-2.89;90.08
41078;BME280;26823;42.662;23.352;2023-02-16T05:29:42;95958.28;;;-2.88;90.49
41078;BME280;26823;42.662;23.352;2023-02-16T05:32:08;95981.13;;;-2.87;89.90
41078;BME280;26823;42.662;23.352;2023-02-16T05:34:34;95970.91;;;-2.90;89.82
41078;BME280;26823;42.662;23.352;2023-02-16T05:36:59;95973.03;;;-2.85;89.52
41078;BME280;26823;42.662;23.352;2023-02-16T05:39:24;95972.53;;;-2.97;89.61
41078;BME280;26823;42.662;23.352;2023-02-16T05:41:50;95979.66;;;-2.98;89.97
41078;BME280;26823;42.662;23.352;2023-02-16T05:44:15;95986.78;;;-2.73;91.28
41078;BME280;26823;42.662;23.352;2023-02-16T05:46:41;95988.41;;;-2.72;90.68
41078;BME280;26823;42.662;23.352;2023-02-16T05:49:08;95984.44;;;-2.76;89.76
41078;BME280;26823;42.662;23.352;2023-02-16T05:51:34;95981.13;;;-2.70;89.88
41078;BME280;26823;42.662;23.352;2023-02-16T05:53:59;95984.09;;;-2.65;89.01
41078;BME280;26823;42.662;23.352;2023-02-16T05:56:25;95987.75;;;-2.66;88.91
41078;BME280;26823;42.662;23.352;2023-02-16T05:58:51;95997.16;;;-2.64;89.26
41078;BME280;26823;42.662;23.352;2023-02-16T06:01:18;95984.75;;;-2.55;88.89
41078;BME280;26823;42.662;23.352;2023-02-16T06:03:43;95981.75;;;-2.43;88.52
41078;BME280;26823;42.662;23.352;2023-02-16T06:06:09;95989.06;;;-2.46;88.71
41078;BME280;26823;42.662;23.352;2023-02-16T06:08:36;95994.97;;;-2.27;88.38
41078;BME280;26823;42.662;23.352;2023-02-16T06:11:02;95995.59;;;-2.17;88.00
41078;BME280;26823;42.662;23.352;2023-02-16T06:13:27;96005.31;;;-0.98;87.58
41078;BME280;26823;42.662;23.352;2023-02-16T06:15:55;96005.63;;;0.43;79.16
41078;BME280;26823;42.662;23.352;2023-02-16T06:18:23;96003.91;;;1.81;71.53
41078;BME280;26823;42.662;23.352;2023-02-16T06:20:49;96006.56;;;3.13;65.22
41078;BME280;26823;42.662;23.352;2023-02-16T06:23:15;95990.53;;;4.20;59.74
41078;BME280;26823;42.662;23.352;2023-02-16T06:25:41;96016.88;;;4.30;57.51
41078;BME280;26823;42.662;23.352;2023-02-16T06:28:08;96027.47;;;4.77;57.00
41078;BME280;26823;42.662;23.352;2023-02-16T06:30:33;96002.47;;;5.85;52.27
41078;BME280;26823;42.662;23.352;2023-02-16T06:33:00;96009.66;;;6.35;50.62
41078;BME280;26823;42.662;23.352;2023-02-16T06:35:25;96020.94;;;6.81;49.22
41078;BME280;26823;42.662;23.352;2023-02-16T06:37:51;96011.16;;;7.06;47.52
41078;BME280;26823;42.662;23.352;2023-02-16T06:40:16;96023.25;;;7.45;46.52
41078;BME280;26823;42.662;23.352;2023-02-16T06:42:43;96034.56;;;6.68;48.58
41078;BME280;26823;42.662;23.352;2023-02-16T06:45:09;96036.22;;;7.48;46.47
41078;BME280;26823;42.662;23.352;2023-02-16T06:47:35;96036.97;;;7.25;47.51
41078;BME280;26823;42.662;23.352;2023-02-16T06:50:01;96034.69;;;7.10;47.35
41078;BME280;26823;42.662;23.352;2023-02-16T06:52:27;96024.16;;;6.34;49.64
41078;BME280;26823;42.662;23.352;2023-02-16T06:54:52;96034.91;;;6.09;50.87
41078;BME280;26823;42.662;23.352;2023-02-16T06:57:18;96030.41;;;5.78;51.68
41078;BME280;26823;42.662;23.352;2023-02-16T06:59:43;96040.59;;;6.01;51.54
41078;BME280;26823;42.662;23.352;2023-02-16T07:02:09;96027.16;;;6.01;50.88
41078;BME280;26823;42.662;23.352;2023-02-16T07:04:35;96008.19;;;5.38;52.90
41078;BME280;26823;42.662;23.352;2023-02-16T07:07:01;96002.25;;;6.12;51.58
41078;BME280;26823;42.662;23.352;2023-02-16T07:09:27;96018.19;;;6.51;50.39
41078;BME280;26823;42.662;23.352;2023-02-16T07:11:52;96030.66;;;7.01;49.14
41078;BME280;26823;42.662;23.352;2023-02-16T07:14:18;96033.69;;;7.23;49.05
41078;BME280;26823;42.662;23.352;2023-02-16T07:16:44;96026.41;;;7.96;46.33
41078;BME280;26823;42.662;23.352;2023-02-16T07:19:13;96028.53;;;8.06;44.70
41078;BME280;26823;42.662;23.352;2023-02-16T07:21:38;96012.91;;;7.12;46.71
41078;BME280;26823;42.662;23.352;2023-02-16T07:24:04;96013.22;;;7.22;46.76
41078;BME280;26823;42.662;23.352;2023-02-16T07:26:30;96007.06;;;6.84;47.40
41078;BME280;26823;42.662;23.352;2023-02-16T07:28:55;95985.97;;;7.30;47.48
41078;BME280;26823;42.662;23.352;2023-02-16T07:31:20;96005.47;;;8.58;44.30
41078;BME280;26823;42.662;23.352;2023-02-16T07:33:46;95997.84;;;8.31;44.62
41078;BME280;26823;42.662;23.352;2023-02-16T07:36:12;96003.38;;;7.58;46.68
41078;BME280;26823;42.662;23.352;2023-02-16T07:38:38;96000.41;;;8.26;46.07
41078;BME280;26823;42.662;23.352;2023-02-16T07:41:06;95997.22;;;8.76;44.07
41078;BME280;26823;42.662;23.352;2023-02-16T07:43:32;96006.75;;;9.08;43.10
41078;BME280;26823;42.662;23.352;2023-02-16T07:45:59;96014.19;;;9.29;42.64
41078;BME280;26823;42.662;23.352;2023-02-16T07:48:24;95998.53;;;8.38;44.22
41078;BME280;26823;42.662;23.352;2023-02-16T07:50:49;95982.19;;;6.89;47.36
41078;BME280;26823;42.662;23.352;2023-02-16T07:53:15;96002.88;;;6.70;48.11
41078;BME280;26823;42.662;23.352;2023-02-16T07:55:41;96001.69;;;6.66;48.69
41078;BME280;26823;42.662;23.352;2023-02-16T07:58:07;95994.88;;;7.00;47.83
41078;BME280;26823;42.662;23.352;2023-02-16T08:00:33;96008.03;;;8.05;45.95
41078;BME280;26823;42.662;23.352;2023-02-16T08:02:59;95994.88;;;8.80;43.50
41078;BME280;26823;42.662;23.352;2023-02-16T08:05:24;95994.50;;;8.88;42.11
41078;BME280;26823;42.662;23.352;2023-02-16T08:07:49;96018.41;;;10.00;40.60
41078;BME280;26823;42.662;23.352;2023-02-16T08:10:15;96016.31;;;10.36;39.80
41078;BME280;26823;42.662;23.352;2023-02-16T08:12:41;96008.09;;;10.14;39.49
41078;BME280;26823;42.662;23.352;2023-02-16T08:15:07;96013.41;;;10.26;39.20
41078;BME280;26823;42.662;23.352;2023-02-16T08:17:34;96013.56;;;10.53;39.08
41078;BME280;26823;42.662;23.352;2023-02-16T08:20:00;96007.78;;;9.93;39.49
41078;BME280;26823;42.662;23.352;2023-02-16T08:22:25;96014.19;;;9.58;40.42
41078;BME280;26823;42.662;23.352;2023-02-16T08:24:50;96023.50;;;10.87;39.15
41078;BME280;26823;42.662;23.352;2023-02-16T08:27:16;96012.81;;;10.97;38.60
41078;BME280;26823;42.662;23.352;2023-02-16T08:29:42;96008.06;;;10.87;38.23
41078;BME280;26823;42.662;23.352;2023-02-16T08:32:10;96021.06;;;11.07;38.44
41078;BME280;26823;42.662;23.352;2023-02-16T08:34:35;96015.63;;;10.46;39.81
41078;BME280;26823;42.662;23.352;2023-02-16T08:37:03;96031.44;;;10.54;39.56
41078;BME280;26823;42.662;23.352;2023-02-16T08:39:30;96022.13;;;11.06;38.52
41078;BME280;26823;42.662;23.352;2023-02-16T08:41:55;96021.72;;;10.98;39.00
41078;BME280;26823;42.662;23.352;2023-02-16T08:44:22;96012.25;;;10.56;39.96
41078;BME280;26823;42.662;23.352;2023-02-16T08:46:50;96021.00;;;9.32;41.40
41078;BME280;26823;42.662;23.352;2023-02-16T08:49:17;96016.53;;;9.26;42.41
41078;BME280;26823;42.662;23.352;2023-02-16T08:51:47;96009.13;;;8.52;44.30
41078;BME280;26823;42.662;23.352;2023-02-16T08:54:24;96013.38;;;9.58;43.08
41078;BME280;26823;42.662;23.352;2023-02-16T08:56:52;96015.97;;;9.99;41.01
41078;BME280;26823;42.662;23.352;2023-02-16T08:59:19;96012.91;;;10.12;40.44
41078;BME280;26823;42.662;23.352;2023-02-16T09:01:46;96011.72;;;10.37;40.26
41078;BME280;26823;42.662;23.352;2023-02-16T09:04:12;96006.09;;;11.49;38.10
41078;BME280;26823;42.662;23.352;2023-02-16T09:06:41;96005.91;;;12.59;35.97
41078;BME280;26823;42.662;23.352;2023-02-16T09:09:11;96007.00;;;13.11;35.01
41078;BME280;26823;42.662;23.352;2023-02-16T09:11:37;96021.19;;;12.32;36.35
41078;BME280;26823;42.662;23.352;2023-02-16T09:14:03;96010.88;;;11.69;37.80
41078;BME280;26823;42.662;23.352;2023-02-16T09:16:30;95972.78;;;11.54;37.25
41078;BME280;26823;42.662;23.352;2023-02-16T09:19:01;96013.75;;;11.57;38.01
41078;BME280;26823;42.662;23.352;2023-02-16T09:21:27;95998.06;;;11.59;37.76
41078;BME280;26823;42.662;23.352;2023-02-16T09:23:57;96000.50;;;11.12;39.34
41078;BME280;26823;42.662;23.352;2023-02-16T09:26:24;95994.25;;;11.88;37.66
41078;BME280;26823;42.662;23.352;2023-02-16T09:28:51;95998.53;;;12.54;36.47
41078;BME280;26823;42.662;23.352;2023-02-16T09:31:29;95941.69;;;11.56;37.60
41078;BME280;26823;42.662;23.352;2023-02-16T09:36:25;95988.69;;;12.85;36.64
41078;BME280;26823;42.662;23.352;2023-02-16T09:38:52;95981.63;;;13.58;34.84
41078;BME280;26823;42.662;23.352;2023-02-16T09:46:29;95965.09;;;11.40;37.67
41078;BME280;26823;42.662;23.352;2023-02-16T09:52:36;95971.75;;;11.60;38.19
41078;BME280;26823;42.662;23.352;2023-02-16T09:55:16;95958.84;;;12.96;36.83
41078;BME280;26823;42.662;23.352;2023-02-16T10:08:42;95952.50;;;14.62;32.59
41078;BME280;26823;42.662;23.352;2023-02-16T10:11:16;95958.53;;;13.92;33.31
41078;BME280;26823;42.662;23.352;2023-02-16T10:14:38;95940.59;;;13.85;33.99
41078;BME280;26823;42.662;23.352;2023-02-16T10:20:04;95948.84;;;15.47;30.85
41078;BME280;26823;42.662;23.352;2023-02-16T10:22:47;95935.81;;;16.48;29.82
41078;BME280;26823;42.662;23.352;2023-02-16T10:27:41;95935.38;;;17.52;27.79
41078;BME280;26823;42.662;23.352;2023-02-16T10:30:20;95932.13;;;17.69;27.32
41078;BME280;26823;42.662;23.352;2023-02-16T10:33:02;95929.38;;;16.34;29.43
41078;BME280;26823;42.662;23.352;2023-02-16T10:35:40;95927.81;;;17.05;28.23
41078;BME280;26823;42.662;23.352;2023-02-16T10:41:00;95919.94;;;18.74;26.08
41078;BME280;26823;42.662;23.352;2023-02-16T10:46:19;95919.25;;;19.10;25.72
41078;BME280;26823;42.662;23.352;2023-02-16T10:48:51;95923.19;;;19.32;25.20
41078;BME280;26823;42.662;23.352;2023-02-16T10:51:18;95909.59;;;19.63;24.72
41078;BME280;26823;42.662;23.352;2023-02-16T10:53:54;95911.53;;;14.93;30.20
41078;BME280;26823;42.662;23.352;2023-02-16T11:02:25;95901.59;;;17.42;27.34
41078;BME280;26823;42.662;23.352;2023-02-16T11:04:54;95900.75;;;19.30;25.06
41078;BME280;26823;42.662;23.352;2023-02-16T11:07:26;95897.50;;;19.14;24.90
41078;BME280;26823;42.662;23.352;2023-02-16T11:09:55;95882.50;;;19.11;25.23
41078;BME280;26823;42.662;23.352;2023-02-16T11:12:31;95879.66;;;19.02;25.26
41078;BME280;26823;42.662;23.352;2023-02-16T11:15:04;95865.28;;;19.70;24.92
41078;BME280;26823;42.662;23.352;2023-02-16T11:17:32;95860.56;;;16.37;27.58
41078;BME280;26823;42.662;23.352;2023-02-16T11:20:24;95873.50;;;14.77;30.93
41078;BME280;26823;42.662;23.352;2023-02-16T11:22:51;95840.06;;;16.15;29.52
41078;BME280;26823;42.662;23.352;2023-02-16T11:27:59;95863.19;;;18.33;26.11
41078;BME280;26823;42.662;23.352;2023-02-16T11:30:35;95864.16;;;18.56;25.65
41078;BME280;26823;42.662;23.352;2023-02-16T11:33:02;95860.09;;;18.53;25.32
41078;BME280;26823;42.662;23.352;2023-02-16T11:35:31;95824.22;;;16.85;27.26
41078;BME280;26823;42.662;23.352;2023-02-16T11:37:57;95848.22;;;17.64;27.03
41078;BME280;26823;42.662;23.352;2023-02-16T11:40:28;95851.53;;;16.60;28.12
41078;BME280;26823;42.662;23.352;2023-02-16T11:42:57;95851.69;;;15.96;28.75
41078;BME280;26823;42.662;23.352;2023-02-16T11:45:33;95840.88;;;16.16;28.85
41078;BME280;26823;42.662;23.352;2023-02-16T11:48:03;95837.34;;;17.59;26.50
41078;BME280;26823;42.662;23.352;2023-02-16T11:50:35;95842.63;;;17.17;27.81
41078;BME280;26823;42.662;23.352;2023-02-16T11:55:35;95827.56;;;19.02;25.06
41078;BME280;26823;42.662;23.352;2023-02-16T11:58:17;95843.13;;;18.93;25.07
41078;BME280;26823;42.662;23.352;2023-02-16T12:01:02;95831.44;;;18.87;24.83
41078;BME280;26823;42.662;23.352;2023-02-16T12:11:39;95810.28;;;19.16;24.91
41078;BME280;26823;42.662;23.352;2023-02-16T12:14:26;95825.88;;;19.75;24.39
41078;BME280;26823;42.662;23.352;2023-02-16T12:22:06;95809.63;;;19.55;23.84
41078;BME280;26823;42.662;23.352;2023-02-16T12:35:42;95786.28;;;15.91;29.35
41078;BME280;26823;42.662;23.352;2023-02-16T12:43:41;95770.78;;;16.54;28.14
41078;BME280;26823;42.662;23.352;2023-02-16T12:46:27;95771.50;;;17.55;26.78
41078;BME280;26823;42.662;23.352;2023-02-16T12:52:09;95762.41;;;16.26;28.39
41078;BME280;26823;42.662;23.352;2023-02-16T12:54:45;95760.59;;;17.36;27.41
41078;BME280;26823;42.662;23.352;2023-02-16T12:57:18;95752.00;;;15.80;28.22
41078;BME280;26823;42.662;23.352;2023-02-16T13:00:13;95748.16;;;15.52;29.48
41078;BME280;26823;42.662;23.352;2023-02-16T13:02:44;95739.19;;;13.25;32.51
41078;BME280;26823;42.662;23.352;2023-02-16T13:05:17;95738.13;;;13.42;32.19
41078;BME280;26823;42.662;23.352;2023-02-16T13:07:46;95727.66;;;13.95;31.35
41078;BME280;26823;42.662;23.352;2023-02-16T13:12:55;95739.31;;;15.06;29.99
41078;BME280;26823;42.662;23.352;2023-02-16T13:15:25;95735.03;;;14.95;30.10
41078;BME280;26823;42.662;23.352;2023-02-16T13:17:57;95737.53;;;16.09;28.52
41078;BME280;26823;42.662;23.352;2023-02-16T13:20:26;95723.63;;;15.52;28.79
41078;BME280;26823;42.662;23.352;2023-02-16T13:23:26;95735.44;;;15.71;29.06
41078;BME280;26823;42.662;23.352;2023-02-16T13:32:05;95723.72;;;16.00;28.99
41078;BME280;26823;42.662;23.352;2023-02-16T13:42:56;95708.16;;;14.38;30.95
41078;BME280;26823;42.662;23.352;2023-02-16T13:45:28;95704.00;;;13.91;32.07
41078;BME280;26823;42.662;23.352;2023-02-16T13:47:55;95696.16;;;13.84;31.87
41078;BME280;26823;42.662;23.352;2023-02-16T13:52:50;95711.69;;;13.68;31.92
41078;BME280;26823;42.662;23.352;2023-02-16T13:58:01;95704.34;;;14.84;30.61
41078;BME280;26823;42.662;23.352;2023-02-16T14:05:32;95693.84;;;14.12;30.92
41078;BME280;26823;42.662;23.352;2023-02-16T14:13:33;95705.28;;;14.98;30.25
41078;BME280;26823;42.662;23.352;2023-02-16T14:16:09;95700.44;;;15.54;29.51
41078;BME280;26823;42.662;23.352;2023-02-16T14:18:41;95693.31;;;14.10;31.15
41078;BME280;26823;42.662;23.352;2023-02-16T14:21:25;95698.28;;;14.47;31.06
41078;BME280;26823;42.662;23.352;2023-02-16T14:23:59;95686.78;;;15.30;29.70
41078;BME280;26823;42.662;23.352;2023-02-16T14:26:30;95699.06;;;15.86;28.60
41078;BME280;26823;42.662;23.352;2023-02-16T14:29:11;95696.25;;;16.35;27.77
41078;BME280;26823;42.662;23.352;2023-02-16T14:32:05;95691.72;;;15.28;29.33
41078;BME280;26823;42.662;23.352;2023-02-16T14:40:42;95688.88;;;14.29;30.31
41078;BME280;26823;42.662;23.352;2023-02-16T14:43:39;95691.38;;;14.21;31.71
41078;BME280;26823;42.662;23.352;2023-02-16T15:03:56;95633.81;;;12.19;34.06
41078;BME280;26823;42.662;23.352;2023-02-16T15:06:45;95678.59;;;12.21;34.87
41078;BME280;26823;42.662;23.352;2023-02-16T15:09:14;95640.56;;;11.37;35.50
41078;BME280;26823;42.662;23.352;2023-02-16T15:12:07;95684.88;;;11.21;36.61
41078;BME280;26823;42.662;23.352;2023-02-16T15:15:02;95626.19;;;10.89;36.73
41078;BME280;26823;42.662;23.352;2023-02-16T15:17:52;95605.28;;;10.79;36.69
41078;BME280;26823;42.662;23.352;2023-02-16T15:20:38;95627.31;;;10.93;36.64
41078;BME280;26823;42.662;23.352;2023-02-16T15:23:14;95678.22;;;11.34;36.95
41078;BME280;26823;42.662;23.352;2023-02-16T15:25:50;95626.53;;;10.98;36.83
41078;BME280;26823;42.662;23.352;2023-02-16T15:28:20;95662.69;;;11.24;37.62
41078;BME280;26823;42.662;23.352;2023-02-16T15:30:50;95690.28;;;11.21;38.32
41078;BME280;26823;42.662;23.352;2023-02-16T15:35:54;95658.06;;;10.82;39.32
41078;BME280;26823;42.662;23.352;2023-02-16T15:38:23;95673.50;;;10.81;39.28
41078;BME280;26823;42.662;23.352;2023-02-16T15:40:54;95675.03;;;10.67;40.00
41078;BME280;26823;42.662;23.352;2023-02-16T15:45:48;95680.81;;;10.26;41.04
41078;BME280;26823;42.662;23.352;2023-02-16T15:48:21;95679.50;;;10.01;42.20
41078;BME280;26823;42.662;23.352;2023-02-16T15:50:47;95668.75;;;9.84;42.37
41078;BME280;26823;42.662;23.352;2023-02-16T15:53:21;95682.16;;;9.74;42.23
41078;BME280;26823;42.662;23.352;2023-02-16T15:55:48;95680.59;;;9.56;42.87
41078;BME280;26823;42.662;23.352;2023-02-16T15:58:14;95670.16;;;9.42;43.02
41078;BME280;26823;42.662;23.352;2023-02-16T16:00:41;95682.78;;;9.37;43.30
41078;BME280;26823;42.662;23.352;2023-02-16T16:03:08;95685.41;;;9.32;43.34
41078;BME280;26823;42.662;23.352;2023-02-16T16:05:38;95689.59;;;9.22;44.14
41078;BME280;26823;42.662;23.352;2023-02-16T16:08:12;95685.84;;;9.06;43.94
41078;BME280;26823;42.662;23.352;2023-02-16T16:10:38;95653.34;;;8.79;44.44